createdAt,value
2018-05-07T00:01:50.416Z,15.50
2018-05-07T00:04:18.698Z,15.20
2018-05-07T00:06:46.944Z,15.00
2018-05-07T00:09:15.209Z,15.00
2018-05-07T00:11:44.246Z,14.70
2018-05-07T00:14:13.361Z,14.70
2018-05-07T00:16:41.597Z,14.80
2018-05-07T00:19:09.854Z,15.00
2018-05-07T00:21:38.855Z,15.00
2018-05-07T00:24:07.877Z,15.30
2018-05-07T00:26:36.193Z,15.20
2018-05-07T00:29:05.319Z,15.10
2018-05-07T00:31:33.580Z,15.10
2018-05-07T00:34:01.896Z,15.20
2018-05-07T00:36:30.922Z,15.40
2018-05-07T00:38:59.205Z,15.30
2018-05-07T00:41:29.883Z,15.20
2018-05-07T00:43:58.128Z,15.00
2018-05-07T00:46:26.376Z,14.90
2018-05-07T00:48:55.413Z,15.10
2018-05-07T00:51:23.651Z,15.10
2018-05-07T00:53:52.855Z,15.30
2018-05-07T00:56:21.875Z,15.50
2018-05-07T00:58:50.121Z,15.50
2018-05-07T01:01:18.364Z,15.70
2018-05-07T01:03:48.763Z,15.80
2018-05-07T01:06:17.745Z,15.70
2018-05-07T01:08:46.829Z,15.70
2018-05-07T01:11:15.071Z,15.70
2018-05-07T01:13:43.345Z,15.60
2018-05-07T01:16:13.055Z,15.60
2018-05-07T01:18:41.297Z,15.80
2018-05-07T01:21:09.542Z,15.70
2018-05-07T01:23:37.825Z,15.90
2018-05-07T01:26:06.156Z,15.70
2018-05-07T01:28:35.178Z,15.80
2018-05-07T01:31:03.875Z,15.80
2018-05-07T01:33:32.137Z,15.80
2018-05-07T01:36:01.158Z,15.80
2018-05-07T01:38:30.149Z,15.70
2018-05-07T01:40:58.387Z,15.70
2018-05-07T01:43:26.649Z,15.70
2018-05-07T01:45:54.892Z,15.60
2018-05-07T01:48:23.174Z,15.50
2018-05-07T01:50:51.435Z,15.50
2018-05-07T01:53:20.458Z,15.50
2018-05-07T01:55:48.688Z,15.40
2018-05-07T01:58:16.925Z,15.40
2018-05-07T02:00:45.653Z,15.10
2018-05-07T02:03:13.916Z,15.20
2018-05-07T02:05:42.306Z,15.30
2018-05-07T02:08:12.025Z,15.30
2018-05-07T02:10:40.290Z,15.30
2018-05-07T02:13:08.557Z,15.20
2018-05-07T02:15:36.801Z,15.10
2018-05-07T02:18:05.803Z,15.00
2018-05-07T02:20:34.832Z,15.00
2018-05-07T02:23:03.123Z,15.00
2018-05-07T02:25:31.368Z,15.00
2018-05-07T02:28:01.304Z,15.00
2018-05-07T02:30:29.563Z,15.00
2018-05-07T02:32:58.567Z,14.90
2018-05-07T02:35:27.574Z,14.70
2018-05-07T02:37:55.804Z,14.70
2018-05-07T02:40:24.093Z,14.60
2018-05-07T02:42:52.388Z,14.60
2018-05-07T02:45:20.632Z,14.60
2018-05-07T02:47:48.897Z,14.50
2018-05-07T02:50:17.922Z,14.30
2018-05-07T02:52:46.160Z,14.20
2018-05-07T02:55:14.390Z,14.30
2018-05-07T02:57:42.643Z,14.60
2018-05-07T03:00:10.925Z,14.40
2018-05-07T03:02:39.202Z,14.30
2018-05-07T03:05:07.435Z,14.50
2018-05-07T03:07:35.676Z,14.60
2018-05-07T03:10:04.019Z,14.60
2018-05-07T03:12:33.023Z,14.50
2018-05-07T03:15:01.325Z,14.50
2018-05-07T03:17:29.571Z,14.40
2018-05-07T03:19:57.814Z,14.30
2018-05-07T03:22:26.047Z,14.20
2018-05-07T03:24:54.299Z,14.00
2018-05-07T03:27:23.302Z,13.90
2018-05-07T03:29:52.319Z,13.80
2018-05-07T03:32:20.587Z,13.80
2018-05-07T03:34:49.605Z,13.70
2018-05-07T03:37:17.836Z,13.60
2018-05-07T03:39:46.071Z,13.60
2018-05-07T03:42:14.307Z,13.80
2018-05-07T03:44:42.582Z,13.70
2018-05-07T03:47:10.811Z,14.00
2018-05-07T03:49:39.082Z,13.80
2018-05-07T03:52:08.098Z,13.60
2018-05-07T03:54:36.904Z,13.60
2018-05-07T03:57:05.154Z,13.60
2018-05-07T03:59:34.160Z,13.70
2018-05-07T04:02:03.168Z,14.00
2018-05-07T04:04:31.399Z,14.00
2018-05-07T04:07:00.525Z,13.80
2018-05-07T04:09:29.550Z,13.70
2018-05-07T04:11:57.789Z,13.70
2018-05-07T04:14:26.051Z,13.90
2018-05-07T04:17:06.139Z,13.90
2018-05-07T04:19:47.088Z,13.60
2018-05-07T04:22:27.291Z,13.60
2018-05-07T04:24:55.516Z,13.60
2018-05-07T04:27:23.861Z,13.70
2018-05-07T04:29:52.822Z,13.90
2018-05-07T04:32:21.831Z,13.50
2018-05-07T04:34:50.082Z,13.50
2018-05-07T04:37:18.356Z,13.40
2018-05-07T04:39:46.589Z,13.50
2018-05-07T04:42:14.837Z,13.50
2018-05-07T04:44:43.829Z,13.20
2018-05-07T04:47:12.816Z,13.20
2018-05-07T04:49:41.654Z,13.20
2018-05-07T04:52:09.904Z,13.30
2018-05-07T04:54:38.909Z,13.50
2018-05-07T04:57:07.926Z,13.40
2018-05-07T04:59:36.175Z,13.40
2018-05-07T05:02:05.051Z,13.50
2018-05-07T05:04:33.295Z,13.70
2018-05-07T05:07:01.552Z,13.90
2018-05-07T05:09:30.556Z,13.90
2018-05-07T05:11:59.633Z,13.90
2018-05-07T05:14:27.915Z,14.10
2018-05-07T05:16:56.143Z,14.20
2018-05-07T05:19:24.368Z,14.40
2018-05-07T05:21:52.615Z,14.50
2018-05-07T05:24:20.871Z,14.70
2018-05-07T05:26:49.419Z,14.90
2018-05-07T05:29:17.646Z,14.90
2018-05-07T05:31:45.909Z,14.90
2018-05-07T05:34:14.167Z,15.20
2018-05-07T05:36:44.053Z,15.40
2018-05-07T05:39:12.324Z,15.40
2018-05-07T05:41:41.332Z,15.50
2018-05-07T05:44:10.373Z,16.00
2018-05-07T05:46:39.419Z,16.10
2018-05-07T05:49:08.767Z,16.10
2018-05-07T05:51:37.025Z,16.40
2018-05-07T05:54:05.271Z,16.80
2018-05-07T05:56:33.535Z,16.90
2018-05-07T05:59:03.068Z,17.40
2018-05-07T06:01:31.391Z,17.40
2018-05-07T06:03:59.637Z,17.60
2018-05-07T06:06:27.864Z,17.70
2018-05-07T06:08:56.289Z,18.00
2018-05-07T06:11:24.460Z,18.10
2018-05-07T06:13:57.639Z,18.30
2018-05-07T06:16:25.847Z,18.50
2018-05-07T06:18:54.675Z,18.60
2018-05-07T06:21:22.988Z,18.90
2018-05-07T06:23:51.216Z,19.20
2018-05-07T06:26:19.445Z,19.30
2018-05-07T06:28:48.500Z,19.30
2018-05-07T06:31:16.727Z,19.30
2018-05-07T06:33:46.692Z,19.90
2018-05-07T06:36:14.938Z,19.90
2018-05-07T06:38:43.944Z,20.30
2018-05-07T06:41:12.203Z,20.30
2018-05-07T06:43:40.459Z,20.50
2018-05-07T06:46:08.683Z,20.70
2018-05-07T06:48:36.932Z,20.90
2018-05-07T06:51:05.180Z,21.20
2018-05-07T06:53:33.432Z,21.40
2018-05-07T06:56:01.667Z,21.50
2018-05-07T06:58:29.941Z,21.70
2018-05-07T07:00:58.204Z,21.90
2018-05-07T07:03:26.572Z,22.00
2018-05-07T07:05:54.820Z,22.10
2018-05-07T07:08:24.014Z,22.50
2018-05-07T07:10:52.103Z,22.40
2018-05-07T07:13:21.141Z,22.80
2018-05-07T07:15:49.444Z,22.80
2018-05-07T07:18:17.701Z,22.90
2018-05-07T07:20:45.939Z,23.10
2018-05-07T07:23:14.987Z,23.40
2018-05-07T07:25:43.237Z,23.40
2018-05-07T07:28:12.322Z,23.60
2018-05-07T07:30:40.549Z,23.60
2018-05-07T07:33:08.787Z,24.00
2018-05-07T07:35:37.887Z,24.30
2018-05-07T07:38:07.169Z,24.50
2018-05-07T07:40:35.415Z,24.50
2018-05-07T07:43:03.672Z,24.50
2018-05-07T07:45:31.922Z,24.60
2018-05-07T07:48:00.161Z,24.90
2018-05-07T07:50:28.407Z,25.30
2018-05-07T07:52:57.424Z,25.70
2018-05-07T07:55:25.689Z,25.70
2018-05-07T07:57:55.399Z,26.00
2018-05-07T08:00:23.659Z,26.00
2018-05-07T08:02:51.924Z,26.10
2018-05-07T08:05:20.162Z,26.30
2018-05-07T08:07:48.408Z,26.30
2018-05-07T08:10:17.476Z,26.80
2018-05-07T08:12:45.698Z,26.80
2018-05-07T08:15:14.737Z,27.10
2018-05-07T08:17:42.960Z,27.10
2018-05-07T08:20:12.349Z,27.00
2018-05-07T08:22:40.607Z,26.90
2018-05-07T08:25:09.461Z,27.10
2018-05-07T08:27:39.197Z,27.60
2018-05-07T08:30:07.478Z,27.60
2018-05-07T08:32:35.711Z,27.60
2018-05-07T08:35:03.984Z,27.70
2018-05-07T08:37:32.229Z,27.80
2018-05-07T08:40:01.660Z,28.20
2018-05-07T08:42:29.878Z,28.20
2018-05-07T08:44:58.925Z,28.50
2018-05-07T08:47:27.153Z,28.50
2018-05-07T08:49:55.415Z,28.50
2018-05-07T08:52:23.635Z,28.80
2018-05-07T08:54:51.895Z,29.00
2018-05-07T08:57:20.901Z,29.10
2018-05-07T08:59:49.934Z,29.10
2018-05-07T09:02:18.343Z,29.10
2018-05-07T09:04:46.435Z,29.30
2018-05-07T09:07:14.925Z,29.40
2018-05-07T09:09:43.185Z,29.50
2018-05-07T09:12:11.435Z,29.50
2018-05-07T09:14:40.412Z,29.50
2018-05-07T09:17:09.432Z,29.70
2018-05-07T09:19:37.741Z,29.60
2018-05-07T09:22:05.974Z,29.80
2018-05-07T09:24:35.500Z,30.20
2018-05-07T09:27:03.745Z,30.20
2018-05-07T09:29:32.076Z,30.30
2018-05-07T09:32:00.306Z,30.40
2018-05-07T09:34:28.568Z,30.10
2018-05-07T09:36:56.819Z,30.40
2018-05-07T09:39:25.205Z,30.80
2018-05-07T09:41:58.466Z,30.80
2018-05-07T09:44:27.484Z,31.20
2018-05-07T09:46:55.724Z,31.10
2018-05-07T09:49:24.064Z,31.20
2018-05-07T09:51:52.323Z,31.30
2018-05-07T09:54:20.585Z,31.30
2018-05-07T09:56:56.611Z,31.30
2018-05-07T09:59:24.691Z,31.20
2018-05-07T10:01:52.952Z,31.50
2018-05-07T10:04:21.171Z,31.50
2018-05-07T10:06:49.443Z,31.30
2018-05-07T10:09:17.680Z,31.50
2018-05-07T10:11:45.947Z,31.60
2018-05-07T10:14:14.656Z,31.80
2018-05-07T10:16:42.923Z,31.80
2018-05-07T10:19:11.251Z,32.00
2018-05-07T10:21:40.418Z,31.90
2018-05-07T10:24:09.408Z,32.10
2018-05-07T10:26:38.400Z,32.10
2018-05-07T10:29:06.651Z,32.10
2018-05-07T10:31:34.983Z,32.40
2018-05-07T10:34:03.224Z,32.30
2018-05-07T10:36:32.268Z,32.40
2018-05-07T10:39:00.553Z,32.40
2018-05-07T10:41:29.063Z,32.70
2018-05-07T10:43:57.916Z,32.50
2018-05-07T10:46:26.166Z,32.80
2018-05-07T10:48:55.162Z,32.60
2018-05-07T10:51:24.205Z,32.80
2018-05-07T10:53:52.431Z,32.80
2018-05-07T10:56:20.673Z,32.80
2018-05-07T10:58:49.053Z,33.00
2018-05-07T11:01:17.884Z,33.20
2018-05-07T11:03:46.169Z,33.10
2018-05-07T11:06:14.392Z,33.50
2018-05-07T11:08:42.632Z,33.50
2018-05-07T11:11:10.899Z,33.40
2018-05-07T11:13:39.237Z,33.50
2018-05-07T11:16:07.376Z,33.90
2018-05-07T11:18:36.412Z,33.60
2018-05-07T11:21:04.644Z,33.60
2018-05-07T11:23:32.890Z,33.40
2018-05-07T11:26:03.387Z,33.30
2018-05-07T11:28:31.609Z,33.70
2018-05-07T11:30:59.865Z,33.80
2018-05-07T11:33:28.267Z,33.90
2018-05-07T11:35:56.555Z,34.10
2018-05-07T11:38:24.817Z,34.10
2018-05-07T11:40:53.064Z,33.80
2018-05-07T11:43:22.810Z,34.00
2018-05-07T11:45:51.053Z,34.00
2018-05-07T11:48:19.291Z,33.80
2018-05-07T11:50:47.551Z,33.90
2018-05-07T11:53:15.876Z,33.60
2018-05-07T11:55:44.858Z,33.40
2018-05-07T11:58:13.109Z,33.40
2018-05-07T12:00:41.390Z,33.60
2018-05-07T12:03:10.280Z,33.40
2018-05-07T12:05:40.753Z,33.30
2018-05-07T12:08:09.078Z,33.20
2018-05-07T12:10:37.287Z,33.40
2018-05-07T12:13:05.524Z,33.10
2018-05-07T12:15:34.597Z,33.20
2018-05-07T12:18:02.880Z,33.50
2018-05-07T12:20:31.132Z,33.50
2018-05-07T12:22:59.403Z,33.60
2018-05-07T12:25:28.396Z,33.10
2018-05-07T12:27:57.445Z,33.10
2018-05-07T12:30:25.738Z,33.20
2018-05-07T12:32:54.001Z,33.30
2018-05-07T12:35:23.089Z,33.40
2018-05-07T12:37:51.330Z,33.40
2018-05-07T12:40:20.338Z,33.30
2018-05-07T12:42:48.633Z,33.30
2018-05-07T12:45:16.884Z,33.20
2018-05-07T12:47:45.906Z,33.70
2018-05-07T12:50:14.140Z,33.70
2018-05-07T12:52:43.025Z,33.70
2018-05-07T12:55:11.245Z,33.50
2018-05-07T12:57:40.260Z,33.50
2018-05-07T13:00:08.501Z,33.50
2018-05-07T13:02:36.738Z,33.40
2018-05-07T13:05:04.976Z,32.80
2018-05-07T13:07:34.000Z,33.00
2018-05-07T13:10:05.360Z,32.90
2018-05-07T13:12:33.666Z,33.00
2018-05-07T13:15:01.915Z,32.90
2018-05-07T13:17:31.273Z,32.70
2018-05-07T13:19:59.571Z,32.70
2018-05-07T13:22:27.888Z,32.60
2018-05-07T13:24:56.264Z,32.40
2018-05-07T13:27:24.395Z,32.50
2018-05-07T13:29:52.637Z,32.50
2018-05-07T13:32:20.883Z,32.20
2018-05-07T13:34:50.632Z,31.70
2018-05-07T13:37:18.904Z,31.70
2018-05-07T13:39:47.140Z,31.80
2018-05-07T13:42:15.413Z,31.90
2018-05-07T13:44:43.652Z,31.90
2018-05-07T13:47:12.553Z,31.80
2018-05-07T13:49:40.793Z,31.70
2018-05-07T13:52:09.897Z,31.90
2018-05-07T13:54:38.245Z,31.80
2018-05-07T13:57:06.497Z,31.70
2018-05-07T13:59:34.775Z,31.60
2018-05-07T14:02:03.151Z,31.50
2018-05-07T14:04:32.176Z,31.60
2018-05-07T14:07:00.444Z,31.60
2018-05-07T14:09:28.689Z,31.40
2018-05-07T14:11:57.789Z,31.00
2018-05-07T14:14:26.847Z,31.00
2018-05-07T14:16:55.824Z,31.10
2018-05-07T14:19:24.109Z,31.10
2018-05-07T14:21:52.383Z,31.30
2018-05-07T14:24:20.636Z,31.20
2018-05-07T14:26:49.760Z,31.20
2018-05-07T14:29:18.859Z,31.20
2018-05-07T14:31:48.187Z,31.20
2018-05-07T14:34:16.484Z,30.80
2018-05-07T14:36:44.752Z,30.70
2018-05-07T14:39:13.010Z,30.80
2018-05-07T14:41:41.872Z,30.70
2018-05-07T14:44:10.150Z,30.80
2018-05-07T14:46:39.001Z,30.30
2018-05-07T14:49:07.224Z,30.30
2018-05-07T14:51:35.501Z,30.20
2018-05-07T14:54:03.781Z,30.30
2018-05-07T14:56:32.010Z,30.30
2018-05-07T14:59:00.276Z,30.30
2018-05-07T15:01:28.534Z,30.20
2018-05-07T15:03:57.540Z,29.90
2018-05-07T15:06:27.313Z,29.90
2018-05-07T15:08:55.821Z,29.90
2018-05-07T15:11:25.011Z,29.70
2018-05-07T15:14:06.845Z,29.60
2018-05-07T15:16:35.079Z,29.40
2018-05-07T15:19:03.377Z,29.40
2018-05-07T15:21:32.493Z,29.40
2018-05-07T15:24:01.508Z,29.10
2018-05-07T15:26:30.521Z,28.80
2018-05-07T15:28:58.782Z,28.70
2018-05-07T15:31:28.423Z,28.40
2018-05-07T15:33:56.687Z,28.40
2018-05-07T15:36:25.107Z,28.10
2018-05-07T15:38:54.019Z,27.80
2018-05-07T15:41:22.247Z,27.70
2018-05-07T15:43:51.281Z,27.50
2018-05-07T15:46:19.527Z,27.40
2018-05-07T15:48:47.794Z,27.20
2018-05-07T15:51:17.296Z,27.10
2018-05-07T15:53:45.580Z,27.00
2018-05-07T15:56:14.107Z,26.90
2018-05-07T15:58:42.420Z,26.80
2018-05-07T16:01:10.667Z,26.70
2018-05-07T16:03:38.875Z,26.70
2018-05-07T16:06:07.249Z,26.60
2018-05-07T16:08:35.412Z,26.50
2018-05-07T16:11:03.673Z,26.40
2018-05-07T16:13:31.899Z,26.30
2018-05-07T16:16:00.167Z,26.20
2018-05-07T16:18:28.440Z,26.00
2018-05-07T16:20:56.700Z,26.00
2018-05-07T16:23:24.932Z,25.90
2018-05-07T16:25:53.176Z,25.90
2018-05-07T16:28:21.499Z,25.80
2018-05-07T16:30:50.456Z,25.60
2018-05-07T16:33:18.730Z,25.60
2018-05-07T16:35:47.012Z,25.50
2018-05-07T16:38:15.968Z,25.50
2018-05-07T16:40:44.249Z,25.40
2018-05-07T16:43:12.532Z,25.30
2018-05-07T16:45:40.779Z,25.20
2018-05-07T16:48:09.024Z,25.10
2018-05-07T16:50:37.280Z,25.10
2018-05-07T16:53:05.547Z,25.00
2018-05-07T16:55:33.806Z,25.00
2018-05-07T16:58:04.017Z,24.80
2018-05-07T17:00:32.273Z,24.80
2018-05-07T17:03:00.527Z,24.70
2018-05-07T17:05:28.796Z,24.70
2018-05-07T17:07:57.061Z,24.60
2018-05-07T17:10:25.332Z,24.50
2018-05-07T17:12:53.589Z,24.40
2018-05-07T17:15:21.854Z,24.40
2018-05-07T17:17:50.873Z,24.30
2018-05-07T17:20:19.137Z,24.30
2018-05-07T17:22:48.145Z,24.10
2018-05-07T17:25:16.410Z,24.10
2018-05-07T17:27:45.421Z,24.00
2018-05-07T17:30:13.682Z,24.00
2018-05-07T17:32:42.695Z,23.90
2018-05-07T17:35:11.716Z,23.90
2018-05-07T17:37:39.994Z,23.80
2018-05-07T17:40:08.255Z,23.80
2018-05-07T17:42:37.265Z,23.70
2018-05-07T17:45:17.605Z,23.70
2018-05-07T17:47:58.848Z,23.60
2018-05-07T17:50:27.103Z,23.60
2018-05-07T17:52:55.373Z,23.50
2018-05-07T17:55:24.456Z,23.50
2018-05-07T17:57:53.455Z,23.50
2018-05-07T18:00:21.717Z,23.40
2018-05-07T18:02:50.739Z,23.30
2018-05-07T18:05:18.988Z,23.20
2018-05-07T18:07:47.988Z,23.20
2018-05-07T18:10:17.109Z,23.20
2018-05-07T18:12:45.386Z,23.20
2018-05-07T18:15:14.396Z,23.10
2018-05-07T18:17:43.507Z,23.10
2018-05-07T18:20:11.899Z,23.10
2018-05-07T18:22:40.132Z,23.00
2018-05-07T18:25:09.204Z,23.00
2018-05-07T18:27:37.447Z,23.00
2018-05-07T18:30:05.676Z,22.90
2018-05-07T18:32:33.944Z,22.90
2018-05-07T18:35:02.853Z,22.80
2018-05-07T18:37:31.580Z,22.70
2018-05-07T18:40:00.583Z,22.70
2018-05-07T18:42:29.703Z,22.70
2018-05-07T18:44:57.952Z,22.60
2018-05-07T18:47:26.976Z,22.50
2018-05-07T18:49:55.207Z,22.50
2018-05-07T18:52:24.228Z,22.40
2018-05-07T18:54:53.225Z,22.30
2018-05-07T18:57:22.240Z,22.20
2018-05-07T18:59:50.455Z,22.20
2018-05-07T19:02:19.570Z,22.20
2018-05-07T19:04:47.835Z,22.10
2018-05-07T19:07:16.089Z,22.10
2018-05-07T19:09:45.169Z,22.00
2018-05-07T19:12:13.357Z,21.90
2018-05-07T19:14:42.348Z,21.90
2018-05-07T19:17:11.379Z,21.80
2018-05-07T19:19:39.675Z,21.80
2018-05-07T19:22:08.656Z,21.60
2018-05-07T19:24:36.911Z,21.60
2018-05-07T19:27:05.918Z,21.50
2018-05-07T19:29:34.179Z,21.50
2018-05-07T19:32:03.207Z,21.50
2018-05-07T19:34:31.447Z,21.40
2018-05-07T19:36:59.697Z,21.30
2018-05-07T19:39:27.948Z,21.30
2018-05-07T19:41:56.208Z,21.30
2018-05-07T19:44:25.323Z,21.10
2018-05-07T19:46:53.582Z,21.10
2018-05-07T19:49:21.819Z,21.10
2018-05-07T19:51:50.517Z,21.10
2018-05-07T19:54:18.763Z,21.10
2018-05-07T19:56:47.006Z,21.00
2018-05-07T19:59:15.236Z,21.00
2018-05-07T20:01:43.473Z,21.00
2018-05-07T20:04:12.520Z,20.90
2018-05-07T20:06:40.756Z,20.90
2018-05-07T20:09:09.008Z,20.80
2018-05-07T20:11:38.108Z,20.80
2018-05-07T20:14:06.387Z,20.80
2018-05-07T20:16:34.617Z,20.80
2018-05-07T20:19:03.638Z,20.70
2018-05-07T20:21:31.871Z,20.60
2018-05-07T20:24:00.139Z,20.60
2018-05-07T20:26:28.383Z,20.60
2018-05-07T20:28:56.620Z,20.60
2018-05-07T20:31:25.700Z,20.60
2018-05-07T20:33:53.943Z,20.60
2018-05-07T20:36:22.232Z,20.60
2018-05-07T20:38:50.513Z,20.50
2018-05-07T20:41:18.769Z,20.40
2018-05-07T20:43:47.771Z,20.40
2018-05-07T20:46:15.999Z,20.30
2018-05-07T20:48:44.244Z,20.30
2018-05-07T20:51:12.525Z,20.20
2018-05-07T20:53:40.781Z,20.20
2018-05-07T20:56:09.834Z,20.10
2018-05-07T20:58:38.068Z,20.10
2018-05-07T21:01:06.317Z,20.10
2018-05-07T21:03:34.565Z,20.00
2018-05-07T21:06:02.812Z,20.00
2018-05-07T21:08:31.061Z,20.00
2018-05-07T21:10:59.293Z,19.90
2018-05-07T21:13:27.548Z,19.90
2018-05-07T21:15:55.793Z,19.80
2018-05-07T21:18:24.046Z,19.80
2018-05-07T21:20:52.295Z,19.70
2018-05-07T21:23:21.291Z,19.70
2018-05-07T21:25:49.539Z,19.60
2018-05-07T21:28:18.488Z,19.60
2018-05-07T21:30:46.725Z,19.40
2018-05-07T21:33:15.759Z,19.30
2018-05-07T21:35:44.059Z,19.30
2018-05-07T21:38:12.261Z,19.30
2018-05-07T21:40:40.492Z,19.30
2018-05-07T21:43:08.744Z,19.30
2018-05-07T21:45:36.981Z,19.20
2018-05-07T21:48:05.231Z,19.20
2018-05-07T21:50:34.272Z,19.20
2018-05-07T21:53:02.487Z,19.20
2018-05-07T21:55:32.416Z,19.10
2018-05-07T21:58:01.427Z,19.10
2018-05-07T22:00:30.137Z,19.00
2018-05-07T22:02:58.372Z,19.10
2018-05-07T22:05:26.636Z,19.00
2018-05-07T22:07:54.909Z,19.00
2018-05-07T22:10:23.173Z,19.00
2018-05-07T22:12:51.551Z,19.00
2018-05-07T22:15:19.810Z,19.00
2018-05-07T22:17:48.144Z,18.90
2018-05-07T22:20:16.400Z,18.90
2018-05-07T22:22:44.648Z,18.90
2018-05-07T22:25:13.652Z,18.90
2018-05-07T22:27:42.192Z,18.80
2018-05-07T22:30:10.436Z,18.80
2018-05-07T22:32:39.283Z,18.70
2018-05-07T22:35:07.508Z,18.60
2018-05-07T22:37:35.764Z,18.60
2018-05-07T22:40:04.783Z,18.40
2018-05-07T22:42:33.015Z,18.40
2018-05-07T22:45:01.253Z,18.50
2018-05-07T22:47:29.936Z,18.40
2018-05-07T22:49:58.197Z,18.20
2018-05-07T22:52:27.187Z,18.10
2018-05-07T22:55:19.896Z,17.90
2018-05-07T22:57:48.151Z,17.80
2018-05-07T23:00:16.413Z,18.00
2018-05-07T23:02:46.613Z,17.70
2018-05-07T23:05:14.911Z,17.70
2018-05-07T23:07:43.237Z,17.70
2018-05-07T23:10:11.495Z,17.60
2018-05-07T23:12:39.744Z,17.50
2018-05-07T23:15:07.974Z,17.60
2018-05-07T23:17:36.228Z,17.40
2018-05-07T23:20:04.494Z,17.60
2018-05-07T23:22:33.600Z,17.40
2018-05-07T23:25:01.849Z,17.40
2018-05-07T23:27:30.111Z,17.30
2018-05-07T23:29:58.363Z,17.10
2018-05-07T23:32:26.724Z,17.10
2018-05-07T23:34:54.987Z,17.20
2018-05-07T23:37:23.993Z,17.30
2018-05-07T23:39:52.977Z,17.30
2018-05-07T23:42:21.237Z,17.20
2018-05-07T23:44:50.111Z,17.40
2018-05-07T23:47:18.372Z,17.20
2018-05-07T23:49:46.593Z,17.20
2018-05-07T23:52:14.865Z,17.20
2018-05-07T23:54:43.176Z,17.20
2018-05-07T23:57:11.463Z,17.00
2018-05-07T23:59:40.457Z,16.70
